Grand Forks Air Force Base
KRDR : rendu visible

Aérodrome :











RETROUVEZ-NOUS SUR...

 
LOGIN :

S'inscrire | Disclaimer

   EN    FR    IT 

 









Légende :    VFR   VFR Marginal   IFR   IFR Intensif   IFR Très Intensif
Visi : 
Plafond : 
>= 8 km
>= 3000ft
5 à 8 km
1000 à 3000 ft
1500m à 5 km
500 à 1000 ft
800 à 1500m
200 à 500 ft
< 800m
< 200 ft
Symboles :   Orages  Brouillard  Fortes neiges  Fortes précipitations  Vent > 20 kt






- Altitude de l'aérodrome : 913 ft


KRDR - Grand Forks Air Force Base

DERNIER METAR :
  • 190456Z 32015KT 10SM BKN015 M18/M22 A3032 RMK AO2A SLP299 T11801219 $

METARs EXPIRÉS :
  • 190356Z 32015KT 10SM OVC010 M18/M22 A3030 RMK AO2A SLP292 T11801217 $
  • 190256Z 33015KT 10SM OVC011 M18/M22 A3028 RMK AO2A PK WND 33027/03 SLP285 T11771216 52029 $

TAF TAF KRDR
Valide du 19 à 02h jusqu'au 20 à 08h UTC


190200Z 1902/2008 30012G18KT 9999 OVC015 620156 QNH3021INS
BECMG 1909/1910 30009KT 9999 SCT035 OVC060 620606 QNH3044INS
BECMG 1923/1924 VRB06KT 9999 SCT020 BKN030 620306 QNH3064INS TXM12/1921Z TNM19/1906Z



MET'MAP, la Météo Aéronautique d'un coup d'oeil ! - Copyright ORBIFLY Décembre 2007 - Disclaimer

ORBIFLY MET'MAP TEAM :

Programmation & Développement : Alexandra Zaïnal
Sur une idée originale de : Baudouin d'Aumeries
Assistance à la programmation : Marc-Olivier Méhu
Soutien technique & logistique : Manuel Goepfert

Contact : metmap@orbifly.com




SOURCES & CREDITS :

   NOAA       Earth
Advisory